sensor_id;sensor_type;location;lat;lon;timestamp;pressure;altitude;pressure_sealevel;temperature
34023;BMP280;20673;48.980;8.138;2023-10-09T00:01:49;100715.56;;;12.44
34023;BMP280;20673;48.980;8.138;2023-10-09T00:04:17;100717.50;;;12.45
34023;BMP280;20673;48.980;8.138;2023-10-09T00:06:43;100718.06;;;12.44
34023;BMP280;20673;48.980;8.138;2023-10-09T00:09:10;100716.37;;;12.43
34023;BMP280;20673;48.980;8.138;2023-10-09T00:11:51;100713.21;;;12.43
34023;BMP280;20673;48.980;8.138;2023-10-09T00:14:20;100711.51;;;12.41
34023;BMP280;20673;48.980;8.138;2023-10-09T00:16:47;100713.97;;;12.41
34023;BMP280;20673;48.980;8.138;2023-10-09T00:19:15;100712.06;;;12.42
34023;BMP280;20673;48.980;8.138;2023-10-09T00:21:47;100713.89;;;12.39
34023;BMP280;20673;48.980;8.138;2023-10-09T00:24:15;100716.16;;;12.37
34023;BMP280;20673;48.980;8.138;2023-10-09T00:26:53;100712.63;;;12.35
34023;BMP280;20673;48.980;8.138;2023-10-09T00:29:24;100710.42;;;12.35
34023;BMP280;20673;48.980;8.138;2023-10-09T00:31:53;100706.01;;;12.33
34023;BMP280;20673;48.980;8.138;2023-10-09T00:34:24;100708.38;;;12.32
34023;BMP280;20673;48.980;8.138;2023-10-09T00:36:52;100708.26;;;12.33
34023;BMP280;20673;48.980;8.138;2023-10-09T00:39:19;100706.72;;;12.32
34023;BMP280;20673;48.980;8.138;2023-10-09T00:41:47;100700.01;;;12.30
34023;BMP280;20673;48.980;8.138;2023-10-09T00:44:13;100695.70;;;12.26
34023;BMP280;20673;48.980;8.138;2023-10-09T00:46:41;100691.60;;;12.25
34023;BMP280;20673;48.980;8.138;2023-10-09T00:49:09;100686.70;;;12.24
34023;BMP280;20673;48.980;8.138;2023-10-09T00:51:41;100685.87;;;12.21
34023;BMP280;20673;48.980;8.138;2023-10-09T00:54:08;100685.15;;;12.18
34023;BMP280;20673;48.980;8.138;2023-10-09T00:56:41;100679.76;;;12.15
34023;BMP280;20673;48.980;8.138;2023-10-09T00:59:14;100674.17;;;12.14
34023;BMP280;20673;48.980;8.138;2023-10-09T01:01:42;100674.77;;;12.13
34023;BMP280;20673;48.980;8.138;2023-10-09T01:04:11;100671.62;;;12.14
34023;BMP280;20673;48.980;8.138;2023-10-09T01:06:42;100670.74;;;12.13
34023;BMP280;20673;48.980;8.138;2023-10-09T01:09:12;100667.30;;;12.15
34023;BMP280;20673;48.980;8.138;2023-10-09T01:11:48;100666.52;;;12.20
34023;BMP280;20673;48.980;8.138;2023-10-09T01:14:16;100664.79;;;12.22
34023;BMP280;20673;48.980;8.138;2023-10-09T01:16:42;100661.78;;;12.27
34023;BMP280;20673;48.980;8.138;2023-10-09T01:19:10;100656.76;;;12.28
34023;BMP280;20673;48.980;8.138;2023-10-09T01:21:41;100653.22;;;12.36
34023;BMP280;20673;48.980;8.138;2023-10-09T01:24:07;100652.04;;;12.38
34023;BMP280;20673;48.980;8.138;2023-10-09T01:26:38;100648.25;;;12.47
34023;BMP280;20673;48.980;8.138;2023-10-09T01:29:08;100653.54;;;12.50
34023;BMP280;20673;48.980;8.138;2023-10-09T01:31:50;100646.18;;;12.51
34023;BMP280;20673;48.980;8.138;2023-10-09T01:34:30;100643.81;;;12.54
34023;BMP280;20673;48.980;8.138;2023-10-09T01:37:13;100643.22;;;12.60
34023;BMP280;20673;48.980;8.138;2023-10-09T01:39:46;100645.90;;;12.64
34023;BMP280;20673;48.980;8.138;2023-10-09T01:42:18;100645.10;;;12.70
34023;BMP280;20673;48.980;8.138;2023-10-09T01:44:56;100647.90;;;12.74
34023;BMP280;20673;48.980;8.138;2023-10-09T01:47:24;100643.54;;;12.89
34023;BMP280;20673;48.980;8.138;2023-10-09T01:49:52;100645.36;;;12.90
34023;BMP280;20673;48.980;8.138;2023-10-09T01:52:22;100639.73;;;13.01
34023;BMP280;20673;48.980;8.138;2023-10-09T01:54:52;100639.93;;;13.17
34023;BMP280;20673;48.980;8.138;2023-10-09T01:57:20;100638.96;;;13.20
34023;BMP280;20673;48.980;8.138;2023-10-09T01:59:51;100637.17;;;13.28
34023;BMP280;20673;48.980;8.138;2023-10-09T02:02:21;100640.17;;;13.31
34023;BMP280;20673;48.980;8.138;2023-10-09T02:05:04;100636.45;;;13.35
34023;BMP280;20673;48.980;8.138;2023-10-09T02:07:36;100642.11;;;13.46
34023;BMP280;20673;48.980;8.138;2023-10-09T02:10:23;100640.12;;;13.52
34023;BMP280;20673;48.980;8.138;2023-10-09T02:13:06;100641.00;;;13.61
34023;BMP280;20673;48.980;8.138;2023-10-09T02:15:40;100643.28;;;13.66
34023;BMP280;20673;48.980;8.138;2023-10-09T02:18:19;100643.33;;;13.68
34023;BMP280;20673;48.980;8.138;2023-10-09T02:23:35;100641.97;;;13.66
34023;BMP280;20673;48.980;8.138;2023-10-09T02:26:08;100634.18;;;13.63
34023;BMP280;20673;48.980;8.138;2023-10-09T02:28:55;100631.21;;;13.58
34023;BMP280;20673;48.980;8.138;2023-10-09T02:31:26;100627.59;;;13.55
34023;BMP280;20673;48.980;8.138;2023-10-09T02:33:54;100626.37;;;13.51
34023;BMP280;20673;48.980;8.138;2023-10-09T02:36:22;100628.20;;;13.45
34023;BMP280;20673;48.980;8.138;2023-10-09T02:38:48;100623.56;;;13.40
34023;BMP280;20673;48.980;8.138;2023-10-09T02:41:16;100612.84;;;13.33
34023;BMP280;20673;48.980;8.138;2023-10-09T02:43:45;100617.31;;;13.25
34023;BMP280;20673;48.980;8.138;2023-10-09T02:46:17;100612.34;;;13.20
34023;BMP280;20673;48.980;8.138;2023-10-09T02:48:45;100609.83;;;13.15
34023;BMP280;20673;48.980;8.138;2023-10-09T02:51:13;100611.43;;;13.10
34023;BMP280;20673;48.980;8.138;2023-10-09T02:53:50;100614.54;;;13.08
34023;BMP280;20673;48.980;8.138;2023-10-09T02:56:17;100607.08;;;13.08
34023;BMP280;20673;48.980;8.138;2023-10-09T02:58:45;100608.00;;;13.18
34023;BMP280;20673;48.980;8.138;2023-10-09T03:01:13;100608.22;;;13.22
34023;BMP280;20673;48.980;8.138;2023-10-09T03:03:41;100601.54;;;13.25
34023;BMP280;20673;48.980;8.138;2023-10-09T03:06:09;100595.93;;;13.28
34023;BMP280;20673;48.980;8.138;2023-10-09T03:08:37;100587.11;;;13.30
34023;BMP280;20673;48.980;8.138;2023-10-09T03:11:04;100585.60;;;13.30
34023;BMP280;20673;48.980;8.138;2023-10-09T03:13:32;100588.43;;;13.29
34023;BMP280;20673;48.980;8.138;2023-10-09T03:15:59;100586.72;;;13.32
34023;BMP280;20673;48.980;8.138;2023-10-09T03:18:27;100590.45;;;13.44
34023;BMP280;20673;48.980;8.138;2023-10-09T03:20:54;100591.49;;;13.51
34023;BMP280;20673;48.980;8.138;2023-10-09T03:23:21;100585.11;;;13.73
34023;BMP280;20673;48.980;8.138;2023-10-09T03:25:47;100580.96;;;13.99
34023;BMP280;20673;48.980;8.138;2023-10-09T03:28:15;100586.83;;;14.21
34023;BMP280;20673;48.980;8.138;2023-10-09T03:30:41;100590.70;;;14.54
34023;BMP280;20673;48.980;8.138;2023-10-09T03:33:10;100590.93;;;14.92
34023;BMP280;20673;48.980;8.138;2023-10-09T03:35:37;100593.90;;;15.08
34023;BMP280;20673;48.980;8.138;2023-10-09T03:38:05;100595.67;;;15.27
34023;BMP280;20673;48.980;8.138;2023-10-09T03:40:45;100593.15;;;15.47
34023;BMP280;20673;48.980;8.138;2023-10-09T03:43:14;100597.39;;;15.58
34023;BMP280;20673;48.980;8.138;2023-10-09T03:45:42;100599.23;;;15.60
34023;BMP280;20673;48.980;8.138;2023-10-09T03:48:20;100598.43;;;15.71
34023;BMP280;20673;48.980;8.138;2023-10-09T03:50:54;100592.11;;;15.76
34023;BMP280;20673;48.980;8.138;2023-10-09T03:53:38;100595.67;;;15.80
34023;BMP280;20673;48.980;8.138;2023-10-09T03:56:09;100594.25;;;15.90
34023;BMP280;20673;48.980;8.138;2023-10-09T03:58:39;100595.79;;;15.91
34023;BMP280;20673;48.980;8.138;2023-10-09T04:01:13;100599.53;;;15.91
34023;BMP280;20673;48.980;8.138;2023-10-09T04:03:43;100605.22;;;15.88
34023;BMP280;20673;48.980;8.138;2023-10-09T04:06:10;100609.79;;;15.87
34023;BMP280;20673;48.980;8.138;2023-10-09T04:08:37;100606.61;;;15.80
34023;BMP280;20673;48.980;8.138;2023-10-09T04:11:05;100612.01;;;15.76
34023;BMP280;20673;48.980;8.138;2023-10-09T04:13:34;100610.84;;;15.75
34023;BMP280;20673;48.980;8.138;2023-10-09T04:16:03;100615.62;;;15.74
34023;BMP280;20673;48.980;8.138;2023-10-09T04:18:31;100615.45;;;15.74
34023;BMP280;20673;48.980;8.138;2023-10-09T04:20:58;100623.04;;;15.70
34023;BMP280;20673;48.980;8.138;2023-10-09T04:23:38;100621.90;;;15.64
34023;BMP280;20673;48.980;8.138;2023-10-09T04:26:23;100621.72;;;15.64
34023;BMP280;20673;48.980;8.138;2023-10-09T04:28:51;100618.51;;;15.67
34023;BMP280;20673;48.980;8.138;2023-10-09T04:31:21;100616.40;;;15.67
34023;BMP280;20673;48.980;8.138;2023-10-09T04:33:49;100619.64;;;15.62
34023;BMP280;20673;48.980;8.138;2023-10-09T04:36:22;100624.49;;;15.62
34023;BMP280;20673;48.980;8.138;2023-10-09T04:38:53;100616.95;;;15.57
34023;BMP280;20673;48.980;8.138;2023-10-09T04:41:33;100624.15;;;15.56
34023;BMP280;20673;48.980;8.138;2023-10-09T04:44:01;100619.00;;;15.54
34023;BMP280;20673;48.980;8.138;2023-10-09T04:46:49;100625.83;;;15.57
34023;BMP280;20673;48.980;8.138;2023-10-09T04:49:36;100620.80;;;15.57
34023;BMP280;20673;48.980;8.138;2023-10-09T04:52:18;100624.36;;;15.53
34023;BMP280;20673;48.980;8.138;2023-10-09T04:54:59;100628.58;;;15.50
34023;BMP280;20673;48.980;8.138;2023-10-09T04:57:45;100621.76;;;15.51
34023;BMP280;20673;48.980;8.138;2023-10-09T05:00:17;100625.60;;;15.47
34023;BMP280;20673;48.980;8.138;2023-10-09T05:02:58;100626.11;;;15.45
34023;BMP280;20673;48.980;8.138;2023-10-09T05:05:29;100623.67;;;15.41
34023;BMP280;20673;48.980;8.138;2023-10-09T05:08:17;100619.52;;;15.41
34023;BMP280;20673;48.980;8.138;2023-10-09T05:10:53;100623.29;;;15.40
34023;BMP280;20673;48.980;8.138;2023-10-09T05:13:34;100621.82;;;15.40
34023;BMP280;20673;48.980;8.138;2023-10-09T05:16:17;100624.29;;;15.38
34023;BMP280;20673;48.980;8.138;2023-10-09T05:18:54;100626.75;;;15.40
34023;BMP280;20673;48.980;8.138;2023-10-09T05:21:39;100630.07;;;15.39
34023;BMP280;20673;48.980;8.138;2023-10-09T05:24:12;100622.56;;;15.36
34023;BMP280;20673;48.980;8.138;2023-10-09T05:26:48;100623.61;;;15.34
34023;BMP280;20673;48.980;8.138;2023-10-09T05:29:23;100626.75;;;15.35
34023;BMP280;20673;48.980;8.138;2023-10-09T05:32:03;100625.08;;;15.35
34023;BMP280;20673;48.980;8.138;2023-10-09T05:34:34;100625.37;;;15.38
34023;BMP280;20673;48.980;8.138;2023-10-09T05:37:06;100625.72;;;15.41
34023;BMP280;20673;48.980;8.138;2023-10-09T05:39:46;100634.11;;;15.48
34023;BMP280;20673;48.980;8.138;2023-10-09T05:42:35;100627.58;;;15.53
34023;BMP280;20673;48.980;8.138;2023-10-09T05:45:17;100633.91;;;15.57
34023;BMP280;20673;48.980;8.138;2023-10-09T05:47:49;100627.92;;;15.57
34023;BMP280;20673;48.980;8.138;2023-10-09T05:50:35;100627.22;;;15.57
34023;BMP280;20673;48.980;8.138;2023-10-09T05:53:03;100630.47;;;15.55
34023;BMP280;20673;48.980;8.138;2023-10-09T05:55:37;100630.61;;;15.58
34023;BMP280;20673;48.980;8.138;2023-10-09T05:58:21;100628.04;;;15.54
34023;BMP280;20673;48.980;8.138;2023-10-09T06:01:06;100629.17;;;15.51
34023;BMP280;20673;48.980;8.138;2023-10-09T06:03:50;100621.20;;;15.47
34023;BMP280;20673;48.980;8.138;2023-10-09T06:06:24;100620.74;;;15.45
34023;BMP280;20673;48.980;8.138;2023-10-09T06:09:03;100627.40;;;15.46
34023;BMP280;20673;48.980;8.138;2023-10-09T06:11:38;100626.73;;;15.47
34023;BMP280;20673;48.980;8.138;2023-10-09T06:14:05;100635.03;;;15.51
34023;BMP280;20673;48.980;8.138;2023-10-09T06:16:42;100642.33;;;15.52
34023;BMP280;20673;48.980;8.138;2023-10-09T06:19:13;100651.37;;;15.53
34023;BMP280;20673;48.980;8.138;2023-10-09T06:21:48;100654.79;;;15.51
34023;BMP280;20673;48.980;8.138;2023-10-09T06:24:32;100658.49;;;15.52
34023;BMP280;20673;48.980;8.138;2023-10-09T06:27:06;100664.52;;;15.54
34023;BMP280;20673;48.980;8.138;2023-10-09T06:29:34;100669.59;;;15.58
34023;BMP280;20673;48.980;8.138;2023-10-09T06:32:04;100672.83;;;15.61
34023;BMP280;20673;48.980;8.138;2023-10-09T06:34:56;100678.12;;;15.69
34023;BMP280;20673;48.980;8.138;2023-10-09T06:37:40;100683.33;;;15.80
34023;BMP280;20673;48.980;8.138;2023-10-09T06:40:08;100688.95;;;15.89
34023;BMP280;20673;48.980;8.138;2023-10-09T06:42:37;100686.87;;;15.99
34023;BMP280;20673;48.980;8.138;2023-10-09T06:45:11;100689.89;;;16.06
34023;BMP280;20673;48.980;8.138;2023-10-09T06:47:49;100686.58;;;16.15
34023;BMP280;20673;48.980;8.138;2023-10-09T06:50:24;100687.33;;;16.22
34023;BMP280;20673;48.980;8.138;2023-10-09T06:52:52;100687.65;;;16.31
34023;BMP280;20673;48.980;8.138;2023-10-09T06:55:24;100682.98;;;16.42
34023;BMP280;20673;48.980;8.138;2023-10-09T06:58:04;100680.28;;;16.53
34023;BMP280;20673;48.980;8.138;2023-10-09T07:00:40;100677.95;;;16.64
34023;BMP280;20673;48.980;8.138;2023-10-09T07:03:28;100679.15;;;16.73
34023;BMP280;20673;48.980;8.138;2023-10-09T07:06:07;100679.33;;;16.84
34023;BMP280;20673;48.980;8.138;2023-10-09T07:08:54;100674.34;;;16.95
34023;BMP280;20673;48.980;8.138;2023-10-09T07:11:50;100678.22;;;17.00
34023;BMP280;20673;48.980;8.138;2023-10-09T07:14:23;100680.40;;;17.08
34023;BMP280;20673;48.980;8.138;2023-10-09T07:17:06;100684.00;;;17.14
34023;BMP280;20673;48.980;8.138;2023-10-09T07:19:45;100689.72;;;17.20
34023;BMP280;20673;48.980;8.138;2023-10-09T07:22:14;100695.53;;;17.26
34023;BMP280;20673;48.980;8.138;2023-10-09T07:24:53;100696.51;;;17.31
34023;BMP280;20673;48.980;8.138;2023-10-09T07:27:26;100700.24;;;17.34
34023;BMP280;20673;48.980;8.138;2023-10-09T07:30:16;100700.12;;;17.40
34023;BMP280;20673;48.980;8.138;2023-10-09T07:33:04;100701.67;;;17.41
34023;BMP280;20673;48.980;8.138;2023-10-09T07:35:45;100699.81;;;17.45
34023;BMP280;20673;48.980;8.138;2023-10-09T07:38:22;100697.26;;;17.48
34023;BMP280;20673;48.980;8.138;2023-10-09T07:40:51;100698.29;;;17.53
34023;BMP280;20673;48.980;8.138;2023-10-09T07:43:36;100695.86;;;17.60
34023;BMP280;20673;48.980;8.138;2023-10-09T07:46:10;100699.77;;;17.72
34023;BMP280;20673;48.980;8.138;2023-10-09T07:49:00;100696.63;;;17.77
34023;BMP280;20673;48.980;8.138;2023-10-09T07:51:28;100694.47;;;17.86
34023;BMP280;20673;48.980;8.138;2023-10-09T07:53:59;100699.05;;;17.95
34023;BMP280;20673;48.980;8.138;2023-10-09T07:56:38;100698.28;;;18.09
34023;BMP280;20673;48.980;8.138;2023-10-09T07:59:09;100694.78;;;18.15
34023;BMP280;20673;48.980;8.138;2023-10-09T08:01:45;100694.84;;;18.32
34023;BMP280;20673;48.980;8.138;2023-10-09T08:04:31;100697.17;;;18.45
34023;BMP280;20673;48.980;8.138;2023-10-09T08:07:10;100692.76;;;18.61
34023;BMP280;20673;48.980;8.138;2023-10-09T08:09:38;100685.77;;;18.77
34023;BMP280;20673;48.980;8.138;2023-10-09T08:12:16;100687.19;;;18.91
34023;BMP280;20673;48.980;8.138;2023-10-09T08:15:04;100691.06;;;19.10
34023;BMP280;20673;48.980;8.138;2023-10-09T08:17:55;100688.72;;;19.25
34023;BMP280;20673;48.980;8.138;2023-10-09T08:20:26;100695.01;;;19.40
34023;BMP280;20673;48.980;8.138;2023-10-09T08:22:53;100694.95;;;19.48
34023;BMP280;20673;48.980;8.138;2023-10-09T08:25:23;100694.50;;;19.53
34023;BMP280;20673;48.980;8.138;2023-10-09T08:27:59;100691.97;;;19.70
34023;BMP280;20673;48.980;8.138;2023-10-09T08:30:43;100696.23;;;19.75
34023;BMP280;20673;48.980;8.138;2023-10-09T08:33:17;100698.93;;;19.86
34023;BMP280;20673;48.980;8.138;2023-10-09T08:35:55;100700.45;;;19.92
34023;BMP280;20673;48.980;8.138;2023-10-09T08:38:23;100708.43;;;20.07
34023;BMP280;20673;48.980;8.138;2023-10-09T08:40:51;100709.61;;;20.10
34023;BMP280;20673;48.980;8.138;2023-10-09T08:43:21;100713.12;;;20.19
34023;BMP280;20673;48.980;8.138;2023-10-09T08:45:56;100711.64;;;20.43
34023;BMP280;20673;48.980;8.138;2023-10-09T08:48:30;100710.79;;;20.43
34023;BMP280;20673;48.980;8.138;2023-10-09T08:50:56;100711.34;;;20.59
34023;BMP280;20673;48.980;8.138;2023-10-09T08:53:24;100713.34;;;20.83
34023;BMP280;20673;48.980;8.138;2023-10-09T08:55:53;100717.07;;;20.93
34023;BMP280;20673;48.980;8.138;2023-10-09T08:58:19;100715.04;;;21.10
34023;BMP280;20673;48.980;8.138;2023-10-09T09:00:47;100720.79;;;21.34
34023;BMP280;20673;48.980;8.138;2023-10-09T09:03:15;100725.83;;;21.57
34023;BMP280;20673;48.980;8.138;2023-10-09T09:05:48;100723.47;;;21.68
34023;BMP280;20673;48.980;8.138;2023-10-09T09:08:25;100725.86;;;22.06
34023;BMP280;20673;48.980;8.138;2023-10-09T09:11:05;100717.30;;;22.17
34023;BMP280;20673;48.980;8.138;2023-10-09T09:14:01;100716.09;;;22.33
34023;BMP280;20673;48.980;8.138;2023-10-09T09:16:34;100704.96;;;22.48
34023;BMP280;20673;48.980;8.138;2023-10-09T09:19:06;100715.12;;;22.58
34023;BMP280;20673;48.980;8.138;2023-10-09T09:21:40;100705.97;;;22.79
34023;BMP280;20673;48.980;8.138;2023-10-09T09:24:12;100702.62;;;22.79
34023;BMP280;20673;48.980;8.138;2023-10-09T09:26:43;100703.45;;;22.94
34023;BMP280;20673;48.980;8.138;2023-10-09T09:29:14;100702.92;;;22.91
34023;BMP280;20673;48.980;8.138;2023-10-09T09:31:56;100706.42;;;22.97
34023;BMP280;20673;48.980;8.138;2023-10-09T09:34:43;100700.53;;;23.13
34023;BMP280;20673;48.980;8.138;2023-10-09T09:37:01;100707.92;;;23.44
34023;BMP280;20673;48.980;8.138;2023-10-09T09:39:29;100705.00;;;23.83
34023;BMP280;20673;48.980;8.138;2023-10-09T09:42:00;100709.70;;;24.09
34023;BMP280;20673;48.980;8.138;2023-10-09T09:44:32;100719.50;;;24.16
34023;BMP280;20673;48.980;8.138;2023-10-09T09:47:00;100729.15;;;24.24
34023;BMP280;20673;48.980;8.138;2023-10-09T09:49:27;100732.09;;;24.57
34023;BMP280;20673;48.980;8.138;2023-10-09T09:51:55;100724.72;;;24.54
34023;BMP280;20673;48.980;8.138;2023-10-09T09:54:22;100722.31;;;24.52
34023;BMP280;20673;48.980;8.138;2023-10-09T09:56:53;100723.06;;;24.29
34023;BMP280;20673;48.980;8.138;2023-10-09T09:59:24;100721.64;;;24.22
34023;BMP280;20673;48.980;8.138;2023-10-09T10:01:56;100720.74;;;24.20
34023;BMP280;20673;48.980;8.138;2023-10-09T10:04:30;100726.06;;;23.91
34023;BMP280;20673;48.980;8.138;2023-10-09T10:06:59;100718.64;;;23.78
34023;BMP280;20673;48.980;8.138;2023-10-09T10:09:38;100715.14;;;23.77
34023;BMP280;20673;48.980;8.138;2023-10-09T10:12:06;100710.71;;;23.74
34023;BMP280;20673;48.980;8.138;2023-10-09T10:14:56;100715.36;;;23.86
34023;BMP280;20673;48.980;8.138;2023-10-09T10:17:25;100717.90;;;23.94
34023;BMP280;20673;48.980;8.138;2023-10-09T10:20:09;100723.72;;;24.00
34023;BMP280;20673;48.980;8.138;2023-10-09T10:22:46;100730.58;;;24.89
34023;BMP280;20673;48.980;8.138;2023-10-09T10:25:33;100716.70;;;25.78
34023;BMP280;20673;48.980;8.138;2023-10-09T10:28:21;100709.79;;;26.37
34023;BMP280;20673;48.980;8.138;2023-10-09T10:31:06;100710.18;;;26.42
34023;BMP280;20673;48.980;8.138;2023-10-09T10:36:29;100697.75;;;26.77
34023;BMP280;20673;48.980;8.138;2023-10-09T10:39:05;100689.75;;;26.45
34023;BMP280;20673;48.980;8.138;2023-10-09T10:41:39;100685.23;;;26.35
34023;BMP280;20673;48.980;8.138;2023-10-09T10:44:29;100675.03;;;25.77
34023;BMP280;20673;48.980;8.138;2023-10-09T10:47:08;100684.28;;;25.36
34023;BMP280;20673;48.980;8.138;2023-10-09T10:49:54;100686.97;;;24.70
34023;BMP280;20673;48.980;8.138;2023-10-09T10:52:28;100682.74;;;24.21
34023;BMP280;20673;48.980;8.138;2023-10-09T10:55:14;100674.33;;;24.01
34023;BMP280;20673;48.980;8.138;2023-10-09T10:57:44;100665.73;;;23.75
34023;BMP280;20673;48.980;8.138;2023-10-09T11:00:20;100664.76;;;23.50
34023;BMP280;20673;48.980;8.138;2023-10-09T11:03:04;100676.22;;;23.29
34023;BMP280;20673;48.980;8.138;2023-10-09T11:05:42;100683.08;;;23.25
34023;BMP280;20673;48.980;8.138;2023-10-09T11:08:11;100682.10;;;23.22
34023;BMP280;20673;48.980;8.138;2023-10-09T11:10:39;100685.86;;;23.16
34023;BMP280;20673;48.980;8.138;2023-10-09T11:13:07;100691.92;;;23.19
34023;BMP280;20673;48.980;8.138;2023-10-09T11:15:39;100692.72;;;23.20
34023;BMP280;20673;48.980;8.138;2023-10-09T11:18:14;100689.59;;;23.15
34023;BMP280;20673;48.980;8.138;2023-10-09T11:20:56;100683.12;;;23.24
34023;BMP280;20673;48.980;8.138;2023-10-09T11:23:31;100681.33;;;23.29
34023;BMP280;20673;48.980;8.138;2023-10-09T11:26:04;100672.80;;;23.31
34023;BMP280;20673;48.980;8.138;2023-10-09T11:29:13;100674.72;;;23.49
34023;BMP280;20673;48.980;8.138;2023-10-09T11:32:03;100678.12;;;23.71
34023;BMP280;20673;48.980;8.138;2023-10-09T11:34:35;100670.31;;;23.93
34023;BMP280;20673;48.980;8.138;2023-10-09T11:37:14;100661.17;;;24.19
34023;BMP280;20673;48.980;8.138;2023-10-09T11:39:45;100650.39;;;24.29
34023;BMP280;20673;48.980;8.138;2023-10-09T11:42:19;100652.82;;;24.42
34023;BMP280;20673;48.980;8.138;2023-10-09T11:45:19;100644.08;;;24.59
34023;BMP280;20673;48.980;8.138;2023-10-09T11:47:37;100640.28;;;24.75
34023;BMP280;20673;48.980;8.138;2023-10-09T11:50:05;100637.48;;;24.80
34023;BMP280;20673;48.980;8.138;2023-10-09T11:52:57;100627.59;;;24.89
34023;BMP280;20673;48.980;8.138;2023-10-09T11:55:25;100631.79;;;25.07
34023;BMP280;20673;48.980;8.138;2023-10-09T11:57:51;100630.54;;;25.43
34023;BMP280;20673;48.980;8.138;2023-10-09T12:00:18;100630.92;;;25.86
34023;BMP280;20673;48.980;8.138;2023-10-09T12:02:56;100632.31;;;26.04
34023;BMP280;20673;48.980;8.138;2023-10-09T12:05:24;100630.20;;;26.28
34023;BMP280;20673;48.980;8.138;2023-10-09T12:07:52;100628.42;;;26.07
34023;BMP280;20673;48.980;8.138;2023-10-09T12:10:21;100631.82;;;25.93
34023;BMP280;20673;48.980;8.138;2023-10-09T12:12:57;100628.04;;;25.75
34023;BMP280;20673;48.980;8.138;2023-10-09T12:15:22;100629.28;;;25.76
34023;BMP280;20673;48.980;8.138;2023-10-09T12:17:48;100630.18;;;26.41
34023;BMP280;20673;48.980;8.138;2023-10-09T12:20:19;100622.68;;;26.99
34023;BMP280;20673;48.980;8.138;2023-10-09T12:23:02;100623.54;;;27.59
34023;BMP280;20673;48.980;8.138;2023-10-09T12:25:33;100618.62;;;28.04
34023;BMP280;20673;48.980;8.138;2023-10-09T12:28:02;100602.39;;;27.73
34023;BMP280;20673;48.980;8.138;2023-10-09T12:30:29;100613.48;;;27.83
34023;BMP280;20673;48.980;8.138;2023-10-09T12:32:57;100600.64;;;27.83
34023;BMP280;20673;48.980;8.138;2023-10-09T12:35:26;100593.56;;;27.84
34023;BMP280;20673;48.980;8.138;2023-10-09T12:37:55;100590.79;;;27.43
34023;BMP280;20673;48.980;8.138;2023-10-09T12:40:22;100589.05;;;27.59
34023;BMP280;20673;48.980;8.138;2023-10-09T12:42:55;100590.26;;;27.75
34023;BMP280;20673;48.980;8.138;2023-10-09T12:45:27;100583.72;;;28.28
34023;BMP280;20673;48.980;8.138;2023-10-09T12:47:55;100574.65;;;28.16
34023;BMP280;20673;48.980;8.138;2023-10-09T12:50:36;100574.04;;;28.51
34023;BMP280;20673;48.980;8.138;2023-10-09T12:53:11;100566.26;;;28.10
34023;BMP280;20673;48.980;8.138;2023-10-09T12:55:41;100574.45;;;27.98
34023;BMP280;20673;48.980;8.138;2023-10-09T12:58:09;100573.61;;;27.57
34023;BMP280;20673;48.980;8.138;2023-10-09T13:00:38;100573.50;;;27.24
34023;BMP280;20673;48.980;8.138;2023-10-09T13:03:07;100571.86;;;27.09
34023;BMP280;20673;48.980;8.138;2023-10-09T13:05:52;100565.72;;;27.32
34023;BMP280;20673;48.980;8.138;2023-10-09T13:08:28;100560.51;;;27.43
34023;BMP280;20673;48.980;8.138;2023-10-09T13:11:05;100555.47;;;27.23
34023;BMP280;20673;48.980;8.138;2023-10-09T13:13:33;100562.74;;;27.57
34023;BMP280;20673;48.980;8.138;2023-10-09T13:16:04;100560.43;;;28.34
34023;BMP280;20673;48.980;8.138;2023-10-09T13:18:32;100560.85;;;28.65
34023;BMP280;20673;48.980;8.138;2023-10-09T13:20:58;100549.09;;;28.76
34023;BMP280;20673;48.980;8.138;2023-10-09T13:23:26;100555.85;;;29.17
34023;BMP280;20673;48.980;8.138;2023-10-09T13:25:54;100543.61;;;29.30
34023;BMP280;20673;48.980;8.138;2023-10-09T13:28:20;100539.62;;;29.32
34023;BMP280;20673;48.980;8.138;2023-10-09T13:30:47;100528.64;;;29.37
34023;BMP280;20673;48.980;8.138;2023-10-09T13:33:15;100531.14;;;29.84
34023;BMP280;20673;48.980;8.138;2023-10-09T13:35:43;100522.19;;;30.06
34023;BMP280;20673;48.980;8.138;2023-10-09T13:38:11;100518.86;;;30.07
34023;BMP280;20673;48.980;8.138;2023-10-09T13:40:37;100511.65;;;29.96
34023;BMP280;20673;48.980;8.138;2023-10-09T13:43:03;100511.15;;;30.05
34023;BMP280;20673;48.980;8.138;2023-10-09T13:45:31;100513.92;;;30.06
34023;BMP280;20673;48.980;8.138;2023-10-09T13:47:59;100516.02;;;29.78
34023;BMP280;20673;48.980;8.138;2023-10-09T13:50:27;100510.06;;;29.27
34023;BMP280;20673;48.980;8.138;2023-10-09T13:52:55;100514.21;;;28.80
34023;BMP280;20673;48.980;8.138;2023-10-09T13:55:22;100519.97;;;28.88
34023;BMP280;20673;48.980;8.138;2023-10-09T13:57:48;100513.25;;;28.83
34023;BMP280;20673;48.980;8.138;2023-10-09T14:00:15;100512.20;;;28.89
34023;BMP280;20673;48.980;8.138;2023-10-09T14:02:46;100508.41;;;29.20
34023;BMP280;20673;48.980;8.138;2023-10-09T14:05:13;100508.53;;;29.00
34023;BMP280;20673;48.980;8.138;2023-10-09T14:07:40;100507.00;;;28.87
34023;BMP280;20673;48.980;8.138;2023-10-09T14:10:07;100506.20;;;28.81
34023;BMP280;20673;48.980;8.138;2023-10-09T14:12:35;100507.63;;;28.82
34023;BMP280;20673;48.980;8.138;2023-10-09T14:15:04;100502.22;;;28.72
34023;BMP280;20673;48.980;8.138;2023-10-09T14:17:30;100506.20;;;28.91
34023;BMP280;20673;48.980;8.138;2023-10-09T14:19:58;100499.33;;;28.99
34023;BMP280;20673;48.980;8.138;2023-10-09T14:22:26;100493.17;;;28.96
34023;BMP280;20673;48.980;8.138;2023-10-09T14:24:54;100493.64;;;28.89
34023;BMP280;20673;48.980;8.138;2023-10-09T14:27:26;100487.11;;;28.99
34023;BMP280;20673;48.980;8.138;2023-10-09T14:29:54;100490.14;;;28.58
34023;BMP280;20673;48.980;8.138;2023-10-09T14:32:25;100495.87;;;28.29
34023;BMP280;20673;48.980;8.138;2023-10-09T14:34:56;100492.42;;;28.22
34023;BMP280;20673;48.980;8.138;2023-10-09T14:37:24;100486.79;;;28.04